Time;durP1;ratioP1;P1;durP2;ratioP2;P2;SDS_P1;SDS_P2;PMS_P1;PMS_P2;Temp;Humidity;BMP_temperature;BMP_pressure;BME280_temperature;BME280_humidity;BME280_pressure;Samples;Min_cycle;Max_cycle;Signal;HPM_P1;HPM_P2
2022/06/08 00:00:17;;;;;;;1.77;1.67;;;16.50;99.90;;;;;;4966061;28;20037;-78
2022/06/08 00:02:45;;;;;;;2.55;1.70;;;16.50;99.90;;;;;;4963720;28;20027;-79
2022/06/08 00:05:12;;;;;;;1.50;1.40;;;16.50;99.90;;;;;;4985219;28;20034;-79
2022/06/08 00:07:38;;;;;;;1.67;1.55;;;16.30;99.90;;;;;;4983512;28;20122;-80
2022/06/08 00:10:05;;;;;;;2.30;1.40;;;16.40;99.90;;;;;;4978628;28;20425;-80
2022/06/08 00:12:31;;;;;;;1.33;1.23;;;16.40;99.90;;;;;;4990256;28;20332;-79
2022/06/08 00:14:59;;;;;;;1.73;1.45;;;16.40;99.90;;;;;;4978798;28;20042;-79
2022/06/08 00:17:26;;;;;;;1.30;1.13;;;16.40;99.90;;;;;;4993747;28;20443;-78
2022/06/08 00:19:52;;;;;;;1.30;1.20;;;16.40;99.90;;;;;;4969143;28;20117;-79
2022/06/08 00:22:18;;;;;;;1.33;1.23;;;16.50;99.90;;;;;;4977176;28;20105;-79
2022/06/08 00:24:45;;;;;;;1.50;1.40;;;16.50;99.90;;;;;;4968083;28;20884;-78
2022/06/08 00:27:12;;;;;;;1.30;1.20;;;16.40;99.90;;;;;;4987951;28;20050;-78
2022/06/08 00:29:43;;;;;;;1.40;1.30;;;16.50;99.90;;;;;;4987092;28;20018;-79
2022/06/08 00:32:24;;;;;;;1.42;1.33;;;16.50;99.90;;;;;;4986310;28;20017;-78
2022/06/08 00:34:54;;;;;;;1.50;1.30;;;16.50;99.90;;;;;;4980901;28;20533;-79
2022/06/08 00:37:19;;;;;;;1.48;1.38;;;16.50;99.90;;;;;;4974837;28;20078;-78
2022/06/08 00:39:47;;;;;;;1.63;1.50;;;16.40;99.90;;;;;;4962076;28;21720;-79
2022/06/08 00:42:20;;;;;;;2.10;1.70;;;16.50;99.90;;;;;;4970387;28;20023;-80
2022/06/08 00:45:10;;;;;;;1.70;1.60;;;16.30;99.90;;;;;;4964154;28;20111;-78
2022/06/08 00:47:44;;;;;;;1.48;1.38;;;16.30;99.90;;;;;;4970321;28;20034;-79
2022/06/08 00:50:25;;;;;;;1.88;1.60;;;16.30;99.90;;;;;;4967894;28;20014;-79
2022/06/08 00:52:53;;;;;;;1.65;1.55;;;16.30;99.90;;;;;;4964874;28;20018;-78
2022/06/08 00:55:23;;;;;;;1.92;1.52;;;16.30;99.90;;;;;;4986811;28;20029;-79
2022/06/08 00:58:04;;;;;;;1.80;1.70;;;16.30;99.90;;;;;;4963727;28;20036;-79
2022/06/08 01:00:39;;;;;;;2.15;1.70;;;16.30;99.90;;;;;;4986866;28;20025;-78
2022/06/08 01:03:07;;;;;;;2.00;1.90;;;16.20;99.90;;;;;;4970907;28;20165;-79
2022/06/08 01:05:56;;;;;;;2.25;2.05;;;16.30;99.90;;;;;;4974650;28;20033;-78
2022/06/08 01:08:45;;;;;;;2.25;1.90;;;16.20;99.90;;;;;;4989445;28;20071;-78
2022/06/08 01:11:20;;;;;;;2.10;1.95;;;16.20;99.90;;;;;;4986677;28;20117;-78
2022/06/08 01:13:48;;;;;;;2.33;2.10;;;16.10;99.90;;;;;;4965369;28;20092;-78
2022/06/08 01:16:15;;;;;;;2.70;2.08;;;16.10;99.90;;;;;;4970268;28;20029;-79
2022/06/08 01:18:41;;;;;;;2.60;2.40;;;16.10;99.90;;;;;;4971616;28;20696;-79
2022/06/08 01:21:35;;;;;;;3.00;2.70;;;16.10;99.90;;;;;;4987420;28;20097;-79
2022/06/08 01:24:07;;;;;;;3.15;2.75;;;16.10;99.90;;;;;;4983513;28;20017;-78
2022/06/08 01:27:16;;;;;;;3.30;3.00;;;16.10;99.90;;;;;;4967881;28;20081;-78
2022/06/08 01:30:09;;;;;;;3.88;2.67;;;16.00;99.90;;;;;;4966912;28;20077;-78
2022/06/08 01:33:01;;;;;;;3.00;2.70;;;16.10;99.90;;;;;;4970997;28;20057;-78
2022/06/08 01:35:53;;;;;;;3.38;3.08;;;16.10;99.90;;;;;;4969133;28;20026;-79
2022/06/08 01:38:35;;;;;;;3.22;2.75;;;16.10;99.90;;;;;;4992364;28;20015;-79
2022/06/08 01:41:32;;;;;;;3.45;2.70;;;16.10;99.90;;;;;;4984496;28;20053;-79
2022/06/08 01:44:12;;;;;;;4.22;3.38;;;16.10;99.90;;;;;;4982233;28;20092;-78
2022/06/08 01:46:54;;;;;;;4.88;3.05;;;16.00;99.90;;;;;;4988478;28;20025;-79
2022/06/08 01:49:40;;;;;;;3.10;2.80;;;16.00;99.90;;;;;;4989428;28;20676;-78
2022/06/08 01:52:37;;;;;;;2.75;2.47;;;15.90;99.90;;;;;;4977527;28;20427;-79
2022/06/08 01:55:42;;;;;;;2.92;2.50;;;15.90;99.90;;;;;;4958136;28;20023;-79
2022/06/08 01:58:22;;;;;;;3.17;2.55;;;15.90;99.90;;;;;;4964804;28;20034;-79
2022/06/08 02:01:11;;;;;;;3.05;2.75;;;15.90;99.90;;;;;;4985947;28;20029;-79
2022/06/08 02:03:52;;;;;;;2.92;2.63;;;15.90;99.90;;;;;;4982562;28;20014;-79
2022/06/08 02:06:48;;;;;;;3.17;2.88;;;15.90;99.90;;;;;;4962755;28;20427;-79
2022/06/08 02:09:22;;;;;;;3.58;2.83;;;15.90;99.90;;;;;;4966268;28;20549;-79
2022/06/08 02:11:58;;;;;;;3.03;2.53;;;15.90;99.90;;;;;;4973363;28;20064;-79
2022/06/08 02:14:56;;;;;;;2.92;2.65;;;15.90;99.90;;;;;;4982103;28;20105;-79
2022/06/08 02:17:46;;;;;;;4.93;2.80;;;15.90;99.90;;;;;;4967347;28;20054;-79
2022/06/08 02:20:18;;;;;;;2.80;2.60;;;15.90;99.90;;;;;;4974702;28;20077;-78
2022/06/08 02:23:02;;;;;;;4.70;2.85;;;15.80;99.90;;;;;;4969174;28;20041;-79
2022/06/08 02:26:28;;;;;;;3.55;2.97;;;15.80;99.90;;;;;;4962883;28;20077;-79
2022/06/08 02:29:01;;;;;;;4.68;3.70;;;15.80;99.90;;;;;;4935545;28;20117;-82
2022/06/08 02:31:32;;;;;;;3.80;3.38;;;15.80;99.90;;;;;;4965052;28;20054;-79
2022/06/08 02:34:34;;;;;;;4.68;3.63;;;15.80;99.90;;;;;;4977842;28;20026;-78
2022/06/08 02:37:18;;;;;;;5.40;4.35;;;15.80;99.90;;;;;;4984340;28;20034;-80
2022/06/08 02:39:51;;;;;;;4.55;3.67;;;15.80;99.90;;;;;;4967756;28;20037;-79
2022/06/08 02:42:40;;;;;;;4.75;3.63;;;15.80;99.90;;;;;;4985739;28;20349;-79
2022/06/08 02:45:29;;;;;;;4.93;3.80;;;15.80;99.90;;;;;;4966469;28;20033;-79
2022/06/08 02:48:03;;;;;;;6.75;4.88;;;15.80;99.90;;;;;;4970889;28;20048;-78
2022/06/08 02:50:30;;;;;;;6.53;4.72;;;15.80;99.90;;;;;;4986356;28;20140;-79
2022/06/08 02:53:15;;;;;;;;;;;15.80;99.90;;;;;;4991465;28;20040;-79
2022/06/08 02:56:08;;;;;;;5.28;4.15;;;15.90;99.90;;;;;;4987117;28;19910;-78
2022/06/08 02:58:49;;;;;;;5.93;4.18;;;15.80;99.90;;;;;;4968913;28;20034;-79
2022/06/08 03:01:46;;;;;;;5.50;4.50;;;15.90;99.90;;;;;;4970656;28;20018;-79
2022/06/08 03:04:22;;;;;;;6.68;5.30;;;15.90;99.90;;;;;;4974522;28;20042;-79
2022/06/08 03:07:00;;;;;;;6.37;5.33;;;15.90;99.90;;;;;;4982834;28;20098;-79
2022/06/08 03:09:32;;;;;;;7.10;6.00;;;15.90;99.90;;;;;;4982803;28;20427;-78
2022/06/08 03:12:08;;;;;;;6.50;5.45;;;15.90;99.90;;;;;;4985608;28;20057;-79
2022/06/08 03:14:42;;;;;;;6.55;5.35;;;15.80;99.90;;;;;;4966097;28;20041;-79
2022/06/08 03:17:10;;;;;;;5.65;5.03;;;15.80;99.90;;;;;;4968328;28;20019;-79
2022/06/08 03:19:37;;;;;;;5.75;4.47;;;15.80;99.90;;;;;;4967066;28;20390;-78
2022/06/08 03:22:05;;;;;;;5.82;4.75;;;15.80;99.90;;;;;;4985286;28;20018;-78
2022/06/08 03:24:31;;;;;;;6.55;4.68;;;15.80;99.90;;;;;;4968478;28;20018;-84
2022/06/08 03:27:04;;;;;;;6.57;4.80;;;15.90;99.90;;;;;;4986212;28;20092;-79
2022/06/08 03:29:32;;;;;;;6.00;5.40;;;15.90;99.90;;;;;;4964977;28;20484;-78
2022/06/08 03:32:01;;;;;;;6.57;4.60;;;15.90;99.90;;;;;;4968916;28;20312;-79
2022/06/08 03:34:28;;;;;;;5.25;4.72;;;15.90;99.90;;;;;;4984321;28;20427;-78
2022/06/08 03:36:56;;;;;;;4.85;4.30;;;15.90;99.90;;;;;;4971472;28;20081;-80
2022/06/08 03:39:24;;;;;;;5.65;4.70;;;15.90;99.90;;;;;;4961464;28;20444;-79
2022/06/08 03:41:49;;;;;;;4.90;4.32;;;16.00;99.90;;;;;;4994558;28;20383;-79
2022/06/08 03:44:19;;;;;;;5.20;4.30;;;15.90;99.90;;;;;;4972244;28;20031;-80
2022/06/08 03:46:51;;;;;;;6.22;4.07;;;16.00;99.90;;;;;;4992047;28;20030;-79
2022/06/08 03:49:20;;;;;;;5.88;4.95;;;16.00;99.90;;;;;;4977538;28;20022;-79
2022/06/08 03:51:47;;;;;;;4.93;4.43;;;16.10;99.90;;;;;;4972302;28;20041;-79
2022/06/08 03:54:16;;;;;;;4.93;4.10;;;16.00;99.90;;;;;;4972929;28;20014;-79
2022/06/08 03:56:54;;;;;;;5.07;4.43;;;16.10;99.90;;;;;;4964210;28;20524;-79
2022/06/08 03:59:22;;;;;;;5.75;4.55;;;16.10;99.90;;;;;;4972006;28;20046;-79
2022/06/08 04:01:48;;;;;;;6.57;4.95;;;16.20;99.90;;;;;;4963686;28;20022;-80
2022/06/08 04:04:14;;;;;;;5.60;4.53;;;16.20;99.90;;;;;;4969650;28;20570;-80
2022/06/08 04:06:42;;;;;;;4.53;4.07;;;16.20;99.90;;;;;;4962324;28;20038;-79
2022/06/08 04:09:09;;;;;;;6.15;4.57;;;16.20;99.90;;;;;;4971772;28;20076;-76
2022/06/08 04:11:35;;;;;;;5.63;4.50;;;16.30;99.90;;;;;;4964119;28;20117;-76
2022/06/08 04:14:02;;;;;;;7.28;4.90;;;16.40;99.90;;;;;;4988303;28;20026;-77
2022/06/08 04:16:29;;;;;;;7.57;4.47;;;16.50;99.90;;;;;;4979077;28;20024;-76
2022/06/08 04:18:56;;;;;;;4.93;4.30;;;16.60;99.90;;;;;;4987343;28;20033;-75
2022/06/08 04:21:23;;;;;;;5.13;4.63;;;16.80;99.90;;;;;;4988515;28;20022;-76
2022/06/08 04:23:50;;;;;;;6.57;4.78;;;16.80;99.90;;;;;;4985667;28;20021;-76
2022/06/08 04:26:17;;;;;;;5.65;4.25;;;16.90;99.90;;;;;;4995378;28;20018;-80
2022/06/08 04:28:42;;;;;;;5.00;4.50;;;16.90;99.90;;;;;;4975509;28;20022;-81
2022/06/08 04:31:08;;;;;;;5.30;4.03;;;16.90;99.90;;;;;;4981405;28;20018;-80
2022/06/08 04:33:35;;;;;;;7.00;4.80;;;16.80;99.90;;;;;;4973472;28;20491;-81
2022/06/08 04:36:04;;;;;;;7.00;4.85;;;16.80;99.90;;;;;;4986088;28;20036;-81
2022/06/08 04:38:30;;;;;;;5.20;4.38;;;16.80;99.90;;;;;;4975107;28;20022;-81
2022/06/08 04:41:12;;;;;;;6.20;4.70;;;16.80;99.90;;;;;;4995315;28;20021;-80
2022/06/08 04:43:40;;;;;;;5.85;5.00;;;16.80;99.90;;;;;;4989057;28;20545;-80
2022/06/08 04:46:07;;;;;;;6.00;4.85;;;16.90;99.90;;;;;;4990192;28;20106;-80
2022/06/08 04:48:32;;;;;;;;;;;16.90;99.90;;;;;;4988092;28;20419;-78
2022/06/08 04:50:59;;;;;;;8.05;4.80;;;16.90;99.90;;;;;;4986892;28;19955;-77
2022/06/08 04:53:25;;;;;;;6.03;4.72;;;17.10;99.90;;;;;;4972477;28;20538;-77
2022/06/08 04:55:53;;;;;;;9.07;4.70;;;17.30;99.90;;;;;;4995137;28;20014;-78
2022/06/08 04:58:26;;;;;;;5.57;4.43;;;17.40;99.90;;;;;;4974426;28;20049;-74
2022/06/08 05:00:55;;;;;;;6.38;4.38;;;17.60;99.90;;;;;;4977304;28;20735;-75
2022/06/08 05:03:26;;;;;;;6.43;3.92;;;17.80;99.90;;;;;;4985542;28;20108;-74
2022/06/08 05:05:52;;;;;;;6.13;4.15;;;17.90;99.90;;;;;;4991333;28;20522;-75
2022/06/08 05:08:18;;;;;;;4.82;4.03;;;18.00;99.90;;;;;;4970614;28;20045;-75
2022/06/08 05:10:44;;;;;;;;;;;18.00;99.90;;;;;;4989383;28;20069;-75
2022/06/08 05:13:11;;;;;;;6.55;4.63;;;18.10;99.90;;;;;;4969447;28;19917;-75
2022/06/08 05:15:42;;;;;;;4.88;3.85;;;18.20;99.90;;;;;;4969916;28;20080;-76
2022/06/08 05:18:14;;;;;;;6.20;4.22;;;18.10;99.90;;;;;;4991917;28;20105;-75
2022/06/08 05:20:43;;;;;;;5.57;4.35;;;18.10;99.90;;;;;;4988156;28;20033;-75
2022/06/08 05:23:13;;;;;;;5.30;3.97;;;17.90;99.90;;;;;;4986206;28;20030;-75
2022/06/08 05:25:45;;;;;;;5.65;4.03;;;17.90;99.90;;;;;;4964090;28;20034;-76
2022/06/08 05:28:21;;;;;;;4.82;4.15;;;17.90;99.90;;;;;;4973894;28;20064;-75
2022/06/08 05:30:46;;;;;;;5.47;3.97;;;17.90;99.90;;;;;;4987753;28;20030;-76
2022/06/08 05:33:14;;;;;;;6.57;4.13;;;18.00;99.90;;;;;;4988796;28;20039;-75
2022/06/08 05:35:46;;;;;;;7.00;4.70;;;18.00;99.90;;;;;;4986128;28;20030;-75
2022/06/08 05:38:15;;;;;;;5.60;3.90;;;18.10;99.90;;;;;;4990116;28;20610;-75
2022/06/08 05:40:42;;;;;;;4.90;3.95;;;18.20;99.90;;;;;;4972520;28;20049;-76
2022/06/08 05:43:15;;;;;;;4.28;3.65;;;18.20;99.90;;;;;;4989196;28;20555;-76
2022/06/08 05:45:41;;;;;;;5.97;4.07;;;18.20;99.90;;;;;;4968065;28;20025;-75
2022/06/08 05:48:09;;;;;;;5.68;3.63;;;18.30;99.90;;;;;;4968807;28;20022;-75
2022/06/08 05:50:38;;;;;;;5.38;3.50;;;18.30;99.90;;;;;;4970197;28;20089;-76
2022/06/08 05:53:04;;;;;;;7.22;5.55;;;18.50;99.90;;;;;;4986510;28;20019;-75
2022/06/08 05:55:31;;;;;;;4.53;3.40;;;18.60;99.90;;;;;;4986175;28;20097;-76
2022/06/08 05:58:01;;;;;;;4.30;3.15;;;18.70;99.90;;;;;;4990251;28;20018;-75
2022/06/08 06:00:33;;;;;;;3.40;3.10;;;18.80;99.90;;;;;;4986533;28;20018;-75
2022/06/08 06:03:02;;;;;;;4.68;3.53;;;18.90;99.90;;;;;;4984474;28;20683;-75
2022/06/08 06:05:31;;;;;;;4.47;2.92;;;18.90;99.90;;;;;;4986984;28;20026;-75
2022/06/08 06:07:59;;;;;;;3.22;2.92;;;19.10;99.90;;;;;;4996179;28;20026;-75
2022/06/08 06:10:29;;;;;;;3.33;2.97;;;19.20;99.90;;;;;;4966425;28;20109;-75
2022/06/08 06:12:54;;;;;;;3.42;3.10;;;19.30;99.90;;;;;;4968810;28;20029;-76
2022/06/08 06:15:25;;;;;;;4.75;3.30;;;19.40;99.90;;;;;;4991157;28;20026;-77
2022/06/08 06:17:51;;;;;;;4.40;2.58;;;19.70;99.90;;;;;;4994319;28;20034;-75
2022/06/08 06:20:17;;;;;;;;;;;19.90;99.90;;;;;;4990528;28;20093;-75
2022/06/08 06:22:47;;;;;;;3.40;2.65;;;20.20;99.90;;;;;;4968693;28;20024;-76
2022/06/08 06:25:19;;;;;;;2.78;2.40;;;20.50;99.90;;;;;;4989486;28;20033;-76
2022/06/08 06:27:46;;;;;;;2.70;2.50;;;21.00;99.90;;;;;;4985274;28;20036;-76
2022/06/08 06:30:13;;;;;;;2.45;2.25;;;21.60;99.90;;;;;;4984131;28;20037;-76
2022/06/08 06:32:46;;;;;;;2.85;2.55;;;22.30;99.90;;;;;;4983850;28;20822;-76
2022/06/08 06:35:23;;;;;;;5.15;2.45;;;23.00;99.90;;;;;;4988276;28;20034;-75
2022/06/08 06:37:50;;;;;;;2.13;1.92;;;23.70;99.90;;;;;;4986299;28;20113;-77
2022/06/08 06:40:18;;;;;;;2.50;2.10;;;24.50;99.90;;;;;;4974985;28;20030;-76
2022/06/08 06:42:46;;;;;;;3.33;1.83;;;25.60;99.90;;;;;;4981561;28;20022;-76
2022/06/08 06:45:12;;;;;;;2.03;1.90;;;26.10;99.00;;;;;;4992532;28;20118;-76
2022/06/08 06:47:39;;;;;;;2.25;2.00;;;26.10;96.80;;;;;;4985781;28;20030;-77
2022/06/08 06:50:08;;;;;;;1.80;1.70;;;26.00;96.80;;;;;;4989373;28;20018;-76
2022/06/08 06:52:35;;;;;;;5.38;1.95;;;25.70;97.00;;;;;;4989001;28;20030;-76
2022/06/08 06:55:01;;;;;;;2.60;2.03;;;25.00;97.20;;;;;;4993228;28;20076;-79
2022/06/08 06:57:33;;;;;;;;;;;24.50;98.70;;;;;;4993703;28;20026;-81
2022/06/08 07:00:01;;;;;;;2.30;2.10;;;24.10;99.20;;;;;;4970196;28;19937;-80
2022/06/08 07:02:27;;;;;;;5.25;2.20;;;23.70;99.90;;;;;;4993124;28;20017;-79
2022/06/08 07:04:57;;;;;;;;;;;23.40;99.90;;;;;;4969866;28;20028;-79
2022/06/08 07:07:25;;;;;;;2.92;2.00;;;23.50;99.90;;;;;;4966456;28;19955;-78
2022/06/08 07:09:54;;;;;;;3.45;2.05;;;23.80;99.90;;;;;;4970329;28;20141;-79
2022/06/08 07:12:27;;;;;;;1.88;1.70;;;23.90;99.90;;;;;;4990662;28;20042;-81
2022/06/08 07:14:53;;;;;;;2.30;2.00;;;23.80;99.90;;;;;;4966505;28;20807;-80
2022/06/08 07:17:21;;;;;;;2.97;1.88;;;23.80;99.90;;;;;;4964758;28;20543;-82
2022/06/08 07:19:47;;;;;;;3.60;2.10;;;24.00;99.90;;;;;;4992356;28;20026;-82
2022/06/08 07:22:14;;;;;;;;;;;24.20;99.90;;;;;;4984236;28;20030;-82
2022/06/08 07:24:41;;;;;;;7.72;2.50;;;24.40;99.20;;;;;;4983003;28;19909;-82
2022/06/08 07:27:14;;;;;;;5.53;2.17;;;24.70;98.60;;;;;;4971984;28;20462;-81
2022/06/08 07:29:40;;;;;;;3.80;1.80;;;25.10;98.50;;;;;;4981304;28;20022;-79
2022/06/08 07:32:07;;;;;;;;;;;25.60;98.30;;;;;;4962596;28;20082;-82
2022/06/08 07:34:36;;;;;;;4.38;2.03;;;26.20;96.80;;;;;;4974636;28;20330;-83
2022/06/08 07:37:02;;;;;;;1.80;1.67;;;27.10;95.80;;;;;;4964701;28;20019;-79
2022/06/08 07:39:28;;;;;;;2.85;2.10;;;27.80;93.80;;;;;;4968772;28;20037;-82
2022/06/08 07:41:54;;;;;;;6.80;2.55;;;28.30;91.90;;;;;;4967863;28;20026;-82
2022/06/08 07:44:27;;;;;;;2.33;2.17;;;28.20;91.80;;;;;;4965960;28;20046;-80
2022/06/08 07:46:53;;;;;;;2.22;2.10;;;28.40;90.60;;;;;;4968433;28;20769;-82
2022/06/08 07:49:36;;;;;;;2.78;1.83;;;28.40;90.70;;;;;;4985341;28;20033;-82
2022/06/08 07:52:14;;;;;;;2.75;2.50;;;28.40;90.30;;;;;;4983281;28;20659;-82
2022/06/08 07:54:57;;;;;;;2.95;2.30;;;28.80;87.90;;;;;;4988133;28;20131;-82
2022/06/08 07:57:26;;;;;;;5.68;1.90;;;28.70;85.00;;;;;;4970220;28;20099;-82
2022/06/08 07:59:54;;;;;;;2.85;1.90;;;28.50;87.30;;;;;;4964948;28;20018;-82
2022/06/08 08:12:26;;;;;;;2.55;1.90;;;28.80;81.70;;;;;;4982564;28;20042;-81
2022/06/08 08:14:59;;;;;;;2.92;1.90;;;28.40;82.20;;;;;;4965737;28;20030;-80
2022/06/08 08:17:25;;;;;;;3.28;2.22;;;28.70;82.20;;;;;;4979863;28;20113;-79
2022/06/08 08:19:52;;;;;;;2.25;2.05;;;28.70;81.60;;;;;;4963931;28;20033;-80
2022/06/08 08:22:21;;;;;;;4.00;2.03;;;28.50;81.70;;;;;;4979567;28;20033;-81
2022/06/08 08:24:50;;;;;;;2.58;2.30;;;28.50;82.30;;;;;;4963326;28;20479;-79
2022/06/08 08:27:17;;;;;;;2.10;1.77;;;28.60;81.50;;;;;;4968177;28;20187;-80
2022/06/08 08:29:44;;;;;;;3.15;1.98;;;28.80;80.40;;;;;;4981170;28;20034;-82
2022/06/08 08:32:14;;;;;;;4.35;1.90;;;28.90;80.00;;;;;;4973767;28;20030;-80
2022/06/08 08:34:41;;;;;;;2.00;1.80;;;29.40;79.00;;;;;;4986522;28;20033;-81
2022/06/08 08:37:07;;;;;;;2.08;1.88;;;29.90;77.20;;;;;;4966340;28;20072;-81
2022/06/08 08:39:34;;;;;;;3.08;1.88;;;30.10;78.00;;;;;;4972590;28;20018;-80
2022/06/08 08:45:11;;;;;;;3.53;2.03;;;30.10;75.80;;;;;;4984219;28;20034;-80
2022/06/08 08:47:46;;;;;;;2.35;1.80;;;30.00;75.50;;;;;;4946628;28;20050;-79
2022/06/08 08:50:32;;;;;;;4.50;1.90;;;29.90;74.80;;;;;;4974135;28;20379;-80
2022/06/08 08:53:15;;;;;;;2.80;1.67;;;30.40;73.40;;;;;;4983490;28;20096;-80
2022/06/08 08:56:27;;;;;;;2.17;1.80;;;30.80;73.20;;;;;;4958702;28;20023;-79
2022/06/08 08:58:55;;;;;;;2.28;1.70;;;31.40;71.00;;;;;;4951228;28;20034;-80
2022/06/08 09:01:33;;;;;;;2.33;1.67;;;31.40;70.50;;;;;;4961788;28;20018;-81
2022/06/08 09:04:25;;;;;;;2.65;1.70;;;31.10;70.40;;;;;;4974565;28;20713;-81
2022/06/08 09:07:21;;;;;;;2.30;1.98;;;30.70;72.10;;;;;;4988578;28;20033;-81
2022/06/08 09:09:50;;;;;;;3.22;1.73;;;30.80;70.00;;;;;;4970027;28;20105;-80
2022/06/08 09:12:22;;;;;;;2.15;1.65;;;30.80;69.60;;;;;;4984577;28;20038;-81
2022/06/08 09:15:01;;;;;;;2.00;1.50;;;31.40;68.50;;;;;;4977866;28;20503;-81
2022/06/08 09:17:49;;;;;;;5.95;1.58;;;31.80;67.30;;;;;;4978453;28;20023;-80
2022/06/08 09:20:28;;;;;;;2.50;1.88;;;31.90;67.10;;;;;;4989964;28;20038;-80
2022/06/08 09:22:57;;;;;;;2.38;1.70;;;31.50;65.70;;;;;;4984553;28;20022;-79
2022/06/08 09:25:38;;;;;;;2.45;1.50;;;30.70;66.50;;;;;;4969735;28;20026;-80
2022/06/08 09:28:27;;;;;;;2.58;1.60;;;30.80;66.30;;;;;;4980286;28;20018;-80
2022/06/08 09:31:03;;;;;;;3.20;1.55;;;31.60;66.20;;;;;;4984690;28;20018;-80
2022/06/08 09:33:33;;;;;;;2.70;1.60;;;32.50;65.10;;;;;;4987067;28;20025;-75
2022/06/08 09:36:04;;;;;;;2.75;1.50;;;33.30;63.50;;;;;;4978893;28;20023;-75
2022/06/08 09:38:36;;;;;;;1.63;1.40;;;32.90;62.70;;;;;;4975308;28;20030;-75
2022/06/08 09:41:22;;;;;;;1.80;1.52;;;32.90;62.40;;;;;;4969006;28;20147;-75
2022/06/08 09:53:49;;;;;;;1.60;1.30;;;35.50;55.70;;;;;;4986043;28;20064;-75
2022/06/08 09:56:24;;;;;;;2.08;1.60;;;35.80;55.20;;;;;;4968208;28;20060;-74
2022/06/08 09:58:59;;;;;;;;;;;35.40;56.10;;;;;;4989491;28;20073;-74
2022/06/08 10:01:54;;;;;;;1.50;1.40;;;34.80;55.90;;;;;;4986316;28;19981;-75
2022/06/08 10:04:52;;;;;;;2.70;1.50;;;34.60;55.20;;;;;;4986986;28;20097;-75
2022/06/08 10:07:26;;;;;;;6.82;1.50;;;34.50;55.70;;;;;;4934108;28;20034;-75
2022/06/08 10:10:30;;;;;;;2.45;1.42;;;34.30;55.60;;;;;;4988259;28;20018;-76
2022/06/08 10:13:03;;;;;;;1.52;1.33;;;34.00;56.20;;;;;;4965872;28;20129;-75
2022/06/08 10:15:42;;;;;;;1.60;1.50;;;33.50;56.20;;;;;;4964191;28;20045;-74
2022/06/08 10:18:17;;;;;;;2.38;1.30;;;33.50;56.60;;;;;;4984971;28;20029;-75
2022/06/08 10:20:55;;;;;;;1.40;1.20;;;33.10;56.70;;;;;;4988395;28;20034;-75
2022/06/08 10:23:36;;;;;;;2.17;1.42;;;32.40;56.80;;;;;;4982024;28;20013;-74
2022/06/08 10:26:34;;;;;;;2.28;1.33;;;32.10;56.50;;;;;;4989594;28;20379;-74
2022/06/08 10:29:11;;;;;;;2.28;1.27;;;32.30;56.50;;;;;;4976676;28;20038;-74
2022/06/08 10:31:57;;;;;;;1.50;1.40;;;32.00;56.90;;;;;;4987011;28;20026;-75
2022/06/08 10:34:31;;;;;;;;;;;31.80;56.20;;;;;;4985289;28;20041;-75
2022/06/08 10:37:10;;;;;;;1.92;1.20;;;32.50;56.30;;;;;;4972740;28;20283;-75
2022/06/08 10:39:36;;;;;;;1.13;1.00;;;32.80;56.40;;;;;;4980110;28;20057;-75
2022/06/08 10:45:00;;;;;;;1.77;1.20;;;33.50;54.50;;;;;;4988380;28;20033;-75
2022/06/08 10:47:32;;;;;;;2.33;1.30;;;34.10;53.80;;;;;;4975062;28;20034;-75
2022/06/08 10:50:01;;;;;;;1.55;1.45;;;34.60;53.40;;;;;;4980112;28;20022;-74
2022/06/08 10:52:28;;;;;;;2.53;1.20;;;34.80;54.00;;;;;;4986755;28;20029;-75
2022/06/08 10:55:16;;;;;;;1.83;1.40;;;34.10;53.90;;;;;;4980537;28;20018;-75
2022/06/08 10:58:03;;;;;;;2.60;1.55;;;32.60;55.60;;;;;;4982186;28;20045;-73
2022/06/08 11:00:58;;;;;;;2.95;1.73;;;31.40;56.40;;;;;;4987281;28;20024;-74
2022/06/08 11:03:42;;;;;;;2.97;1.55;;;30.20;58.20;;;;;;4966044;28;20026;-75
2022/06/08 11:06:31;;;;;;;2.97;1.50;;;29.40;60.10;;;;;;4988066;28;20111;-74
2022/06/08 11:08:58;;;;;;;3.22;1.40;;;28.90;61.90;;;;;;4968494;28;20013;-75
2022/06/08 11:11:45;;;;;;;1.95;1.40;;;28.50;62.20;;;;;;4982134;28;20021;-75
2022/06/08 11:14:27;;;;;;;;;;;28.00;62.40;;;;;;4973268;28;20102;-75
2022/06/08 11:16:59;;;;;;;2.97;1.40;;;27.50;62.30;;;;;;4986046;28;19992;-75
2022/06/08 11:19:28;;;;;;;4.00;1.52;;;27.10;63.70;;;;;;4965334;28;20084;-73
2022/06/08 11:22:13;;;;;;;2.75;1.50;;;26.80;64.20;;;;;;4989737;28;20387;-75
2022/06/08 11:24:45;;;;;;;1.80;1.63;;;26.60;65.60;;;;;;4967343;28;20033;-74
2022/06/08 11:27:32;;;;;;;3.28;1.88;;;26.80;65.40;;;;;;4972502;28;20102;-74
2022/06/08 11:30:07;;;;;;;1.38;1.27;;;27.10;62.90;;;;;;4987470;28;20022;-74
2022/06/08 11:32:32;;;;;;;2.97;2.50;;;27.60;62.70;;;;;;4981709;28;20019;-74
2022/06/08 11:35:25;;;;;;;1.58;1.48;;;27.90;62.60;;;;;;4963680;28;20025;-74
2022/06/08 11:37:59;;;;;;;1.60;1.50;;;28.00;61.60;;;;;;4973122;28;20022;-75
2022/06/08 11:40:30;;;;;;;1.58;1.48;;;28.20;61.80;;;;;;4968504;28;20025;-75
2022/06/08 11:43:25;;;;;;;1.88;1.48;;;28.30;61.50;;;;;;4965959;28;20022;-75
2022/06/08 11:46:04;;;;;;;1.85;1.40;;;28.40;62.10;;;;;;4989421;28;20030;-74
2022/06/08 11:48:47;;;;;;;2.65;1.40;;;28.40;61.30;;;;;;4969586;28;20031;-75
2022/06/08 11:51:34;;;;;;;2.38;1.40;;;28.50;61.10;;;;;;4968119;28;20041;-74
2022/06/08 11:54:25;;;;;;;1.60;1.50;;;28.50;60.80;;;;;;4967015;28;20030;-75
2022/06/08 11:57:15;;;;;;;2.80;1.38;;;28.30;62.30;;;;;;4965822;28;20731;-75
2022/06/08 11:59:44;;;;;;;3.45;1.50;;;28.10;61.70;;;;;;4966352;28;20054;-75
2022/06/08 12:02:26;;;;;;;1.60;1.50;;;28.10;62.00;;;;;;4988118;28;20025;-74
2022/06/08 12:04:56;;;;;;;2.42;1.67;;;28.20;61.60;;;;;;4988092;28;20045;-74
2022/06/08 12:08:03;;;;;;;2.28;1.30;;;28.20;61.80;;;;;;4966267;28;20029;-75
2022/06/08 12:10:32;;;;;;;1.63;1.50;;;28.00;62.30;;;;;;4965359;28;20053;-75
2022/06/08 12:13:18;;;;;;;1.80;1.60;;;27.90;62.40;;;;;;4985212;28;20029;-75
2022/06/08 12:15:54;;;;;;;2.72;1.67;;;27.80;62.70;;;;;;4964844;28;20202;-75
2022/06/08 12:18:41;;;;;;;2.83;1.50;;;27.80;63.10;;;;;;4991504;28;20018;-75
2022/06/08 12:21:27;;;;;;;3.60;1.48;;;27.70;63.20;;;;;;4986039;28;20085;-75
2022/06/08 12:23:58;;;;;;;1.77;1.67;;;27.60;63.30;;;;;;4967540;28;20125;-74
2022/06/08 12:26:25;;;;;;;1.50;1.40;;;27.60;62.70;;;;;;4981350;28;20460;-74
2022/06/08 12:29:25;;;;;;;1.88;1.77;;;27.60;62.60;;;;;;4991112;28;20026;-74
2022/06/08 12:32:07;;;;;;;3.10;1.48;;;27.40;64.30;;;;;;4914277;29;20042;-75
2022/06/08 12:35:07;;;;;;;3.92;1.50;;;27.40;62.70;;;;;;4909621;29;20556;-75
2022/06/08 12:37:44;;;;;;;2.42;1.40;;;27.30;63.50;;;;;;4907695;29;20032;-76
2022/06/08 12:40:15;;;;;;;2.80;1.75;;;27.30;62.70;;;;;;4915338;29;20012;-77
2022/06/08 12:43:01;;;;;;;1.48;1.38;;;27.10;63.70;;;;;;4982507;28;20046;-76
2022/06/08 12:45:36;;;;;;;1.55;1.40;;;27.00;65.40;;;;;;4980606;28;20022;-75
2022/06/08 12:48:42;;;;;;;2.10;1.63;;;26.80;66.30;;;;;;4989112;28;20073;-75
2022/06/08 12:51:47;;;;;;;2.28;1.63;;;26.60;66.40;;;;;;4986130;28;20075;-77
2022/06/08 12:54:31;;;;;;;1.50;1.38;;;26.50;65.60;;;;;;4983064;28;20513;-75
2022/06/08 12:57:21;;;;;;;3.83;2.17;;;26.60;66.30;;;;;;4966728;28;20056;-75
2022/06/08 12:59:52;;;;;;;4.15;1.40;;;26.70;64.90;;;;;;4973818;28;20152;-77
2022/06/08 13:02:29;;;;;;;2.67;1.70;;;26.80;65.80;;;;;;4957992;28;20145;-77
2022/06/08 13:04:56;;;;;;;2.38;1.40;;;26.80;65.90;;;;;;4973206;28;20022;-76
2022/06/08 13:07:25;;;;;;;1.70;1.60;;;26.80;65.60;;;;;;4995868;28;20022;-78
2022/06/08 13:09:54;;;;;;;1.98;1.42;;;26.90;65.70;;;;;;4994605;28;20033;-78
2022/06/08 13:12:35;;;;;;;4.07;1.42;;;26.90;65.00;;;;;;4986106;28;20049;-76
2022/06/08 13:15:24;;;;;;;2.10;1.40;;;26.90;64.70;;;;;;4983505;28;20506;-76
2022/06/08 13:17:51;;;;;;;2.03;1.58;;;26.80;65.00;;;;;;4969907;28;20121;-77
2022/06/08 13:20:30;;;;;;;3.17;2.85;;;26.70;65.60;;;;;;4974248;28;20538;-77
2022/06/08 13:22:57;;;;;;;2.53;1.90;;;26.70;65.90;;;;;;4978685;28;20026;-75
2022/06/08 13:25:28;;;;;;;2.97;1.63;;;26.60;63.80;;;;;;4976878;28;20086;-75
2022/06/08 13:27:55;;;;;;;3.60;1.67;;;26.70;63.60;;;;;;4961381;28;20109;-74
2022/06/08 13:30:29;;;;;;;3.08;1.60;;;26.60;64.50;;;;;;4965542;28;20674;-74
2022/06/08 13:32:57;;;;;;;1.80;1.40;;;26.70;65.40;;;;;;4988229;28;20022;-74
2022/06/08 13:35:28;;;;;;;2.00;1.35;;;26.90;65.10;;;;;;4988390;28;20033;-74
2022/06/08 13:37:58;;;;;;;1.83;1.25;;;27.10;64.20;;;;;;4974091;28;20117;-74
2022/06/08 13:40:29;;;;;;;3.22;1.40;;;27.40;64.90;;;;;;4963464;28;20106;-74
2022/06/08 13:42:55;;;;;;;1.73;1.42;;;27.40;63.90;;;;;;4988437;28;20143;-72
2022/06/08 13:45:25;;;;;;;2.03;1.48;;;27.30;63.50;;;;;;4980206;28;20322;-69
2022/06/08 13:47:59;;;;;;;1.73;1.45;;;27.50;62.80;;;;;;4990764;28;20123;-80
2022/06/08 13:50:40;;;;;;;2.03;1.50;;;27.70;63.10;;;;;;4972704;28;20030;-73
2022/06/08 13:53:09;;;;;;;3.67;1.67;;;27.70;62.60;;;;;;4966249;28;20026;-69
2022/06/08 13:55:42;;;;;;;1.98;1.50;;;27.70;63.20;;;;;;4971291;28;20048;-69